sensor_id;sensor_type;location;lat;lon;timestamp;temperature;humidity
6843;DHT22;3460;52.028;8.916;2024-02-04T00:02:00;8.60;99.90
6843;DHT22;3460;52.028;8.916;2024-02-04T00:04:29;8.50;99.90
6843;DHT22;3460;52.028;8.916;2024-02-04T00:06:57;8.50;99.90
6843;DHT22;3460;52.028;8.916;2024-02-04T00:09:24;8.40;99.90
6843;DHT22;3460;52.028;8.916;2024-02-04T00:11:53;8.40;99.90
6843;DHT22;3460;52.028;8.916;2024-02-04T00:14:20;8.40;99.90
6843;DHT22;3460;52.028;8.916;2024-02-04T00:16:46;8.40;99.90
6843;DHT22;3460;52.028;8.916;2024-02-04T00:19:13;8.40;99.90
6843;DHT22;3460;52.028;8.916;2024-02-04T00:21:41;8.40;99.90
6843;DHT22;3460;52.028;8.916;2024-02-04T00:24:08;8.40;99.90
6843;DHT22;3460;52.028;8.916;2024-02-04T00:26:35;8.50;99.90
6843;DHT22;3460;52.028;8.916;2024-02-04T00:29:02;8.40;99.90
6843;DHT22;3460;52.028;8.916;2024-02-04T00:31:28;8.40;99.90
6843;DHT22;3460;52.028;8.916;2024-02-04T00:33:55;8.40;99.90
6843;DHT22;3460;52.028;8.916;2024-02-04T00:36:22;8.40;99.90
6843;DHT22;3460;52.028;8.916;2024-02-04T00:38:50;8.30;99.90
6843;DHT22;3460;52.028;8.916;2024-02-04T00:41:17;8.30;99.90
6843;DHT22;3460;52.028;8.916;2024-02-04T00:43:43;8.30;99.90
6843;DHT22;3460;52.028;8.916;2024-02-04T00:46:10;8.30;99.90
6843;DHT22;3460;52.028;8.916;2024-02-04T00:48:37;8.40;99.90
6843;DHT22;3460;52.028;8.916;2024-02-04T00:51:06;8.40;99.90
6843;DHT22;3460;52.028;8.916;2024-02-04T00:53:33;8.40;99.90
6843;DHT22;3460;52.028;8.916;2024-02-04T00:56:02;8.30;99.90
6843;DHT22;3460;52.028;8.916;2024-02-04T00:58:29;8.30;99.90
6843;DHT22;3460;52.028;8.916;2024-02-04T01:00:55;8.30;99.90
6843;DHT22;3460;52.028;8.916;2024-02-04T01:03:22;8.40;99.90
6843;DHT22;3460;52.028;8.916;2024-02-04T01:05:50;8.40;99.90
6843;DHT22;3460;52.028;8.916;2024-02-04T01:08:17;8.40;99.90
6843;DHT22;3460;52.028;8.916;2024-02-04T01:10:43;8.40;99.90
6843;DHT22;3460;52.028;8.916;2024-02-04T01:13:11;8.40;99.90
6843;DHT22;3460;52.028;8.916;2024-02-04T01:15:38;8.40;99.90
6843;DHT22;3460;52.028;8.916;2024-02-04T01:18:05;8.40;99.90
6843;DHT22;3460;52.028;8.916;2024-02-04T01:20:32;8.40;99.90
6843;DHT22;3460;52.028;8.916;2024-02-04T01:22:58;8.40;99.90
6843;DHT22;3460;52.028;8.916;2024-02-04T01:25:25;8.30;99.90
6843;DHT22;3460;52.028;8.916;2024-02-04T01:27:52;8.40;99.90
6843;DHT22;3460;52.028;8.916;2024-02-04T01:30:20;8.40;99.90
6843;DHT22;3460;52.028;8.916;2024-02-04T01:32:47;8.40;99.90
6843;DHT22;3460;52.028;8.916;2024-02-04T01:35:13;8.40;99.90
6843;DHT22;3460;52.028;8.916;2024-02-04T01:37:41;8.30;99.90
6843;DHT22;3460;52.028;8.916;2024-02-04T01:40:09;8.30;99.90
6843;DHT22;3460;52.028;8.916;2024-02-04T01:42:36;8.30;99.90
6843;DHT22;3460;52.028;8.916;2024-02-04T01:45:04;8.30;99.90
6843;DHT22;3460;52.028;8.916;2024-02-04T01:47:32;8.20;99.90
6843;DHT22;3460;52.028;8.916;2024-02-04T01:49:59;8.30;99.90
6843;DHT22;3460;52.028;8.916;2024-02-04T01:52:27;8.30;99.90
6843;DHT22;3460;52.028;8.916;2024-02-04T01:54:54;8.30;99.90
6843;DHT22;3460;52.028;8.916;2024-02-04T01:57:21;8.20;99.90
6843;DHT22;3460;52.028;8.916;2024-02-04T01:59:48;8.30;99.90
6843;DHT22;3460;52.028;8.916;2024-02-04T02:02:17;8.30;99.90
6843;DHT22;3460;52.028;8.916;2024-02-04T02:04:46;8.30;99.90
6843;DHT22;3460;52.028;8.916;2024-02-04T02:07:13;8.20;99.90
6843;DHT22;3460;52.028;8.916;2024-02-04T02:09:42;8.20;99.90
6843;DHT22;3460;52.028;8.916;2024-02-04T02:12:12;8.20;99.90
6843;DHT22;3460;52.028;8.916;2024-02-04T02:14:44;8.20;99.90
6843;DHT22;3460;52.028;8.916;2024-02-04T02:17:13;8.10;99.90
6843;DHT22;3460;52.028;8.916;2024-02-04T02:19:50;8.20;99.90
6843;DHT22;3460;52.028;8.916;2024-02-04T02:22:26;8.10;99.90
6843;DHT22;3460;52.028;8.916;2024-02-04T02:24:56;8.10;99.90
6843;DHT22;3460;52.028;8.916;2024-02-04T02:27:24;8.10;99.90
6843;DHT22;3460;52.028;8.916;2024-02-04T02:29:51;8.10;99.90
6843;DHT22;3460;52.028;8.916;2024-02-04T02:32:18;8.10;99.90
6843;DHT22;3460;52.028;8.916;2024-02-04T02:34:46;8.20;99.90
6843;DHT22;3460;52.028;8.916;2024-02-04T02:37:22;8.10;99.90
6843;DHT22;3460;52.028;8.916;2024-02-04T02:39:58;8.10;99.90
6843;DHT22;3460;52.028;8.916;2024-02-04T02:42:26;8.10;99.90
6843;DHT22;3460;52.028;8.916;2024-02-04T02:44:54;8.10;99.90
6843;DHT22;3460;52.028;8.916;2024-02-04T02:47:22;8.20;99.90
6843;DHT22;3460;52.028;8.916;2024-02-04T02:49:51;8.30;99.90
6843;DHT22;3460;52.028;8.916;2024-02-04T02:52:18;8.20;99.90
6843;DHT22;3460;52.028;8.916;2024-02-04T02:54:45;8.20;99.90
6843;DHT22;3460;52.028;8.916;2024-02-04T02:57:13;8.30;99.90
6843;DHT22;3460;52.028;8.916;2024-02-04T02:59:40;8.30;99.90
6843;DHT22;3460;52.028;8.916;2024-02-04T03:02:06;8.30;99.90
6843;DHT22;3460;52.028;8.916;2024-02-04T03:04:33;8.40;99.90
6843;DHT22;3460;52.028;8.916;2024-02-04T03:07:00;8.40;99.90
6843;DHT22;3460;52.028;8.916;2024-02-04T03:09:27;8.40;99.90
6843;DHT22;3460;52.028;8.916;2024-02-04T03:11:53;8.40;99.90
6843;DHT22;3460;52.028;8.916;2024-02-04T03:14:22;8.40;99.90
6843;DHT22;3460;52.028;8.916;2024-02-04T03:16:49;8.40;99.90
6843;DHT22;3460;52.028;8.916;2024-02-04T03:19:15;8.50;99.90
6843;DHT22;3460;52.028;8.916;2024-02-04T03:21:42;8.50;99.90
6843;DHT22;3460;52.028;8.916;2024-02-04T03:24:09;8.50;99.90
6843;DHT22;3460;52.028;8.916;2024-02-04T03:26:36;8.50;99.90
6843;DHT22;3460;52.028;8.916;2024-02-04T03:29:02;8.60;99.90
6843;DHT22;3460;52.028;8.916;2024-02-04T03:31:31;8.60;99.90
6843;DHT22;3460;52.028;8.916;2024-02-04T03:33:58;8.60;99.90
6843;DHT22;3460;52.028;8.916;2024-02-04T03:36:25;8.60;99.90
6843;DHT22;3460;52.028;8.916;2024-02-04T03:38:52;8.70;99.90
6843;DHT22;3460;52.028;8.916;2024-02-04T03:41:19;8.70;99.90
6843;DHT22;3460;52.028;8.916;2024-02-04T03:43:46;8.70;99.90
6843;DHT22;3460;52.028;8.916;2024-02-04T03:46:13;8.70;99.90
6843;DHT22;3460;52.028;8.916;2024-02-04T03:48:42;8.70;99.90
6843;DHT22;3460;52.028;8.916;2024-02-04T03:51:15;8.70;99.90
6843;DHT22;3460;52.028;8.916;2024-02-04T03:53:42;8.70;99.90
6843;DHT22;3460;52.028;8.916;2024-02-04T03:56:09;8.60;99.90
6843;DHT22;3460;52.028;8.916;2024-02-04T03:58:36;8.70;99.90
6843;DHT22;3460;52.028;8.916;2024-02-04T04:01:03;8.70;99.90
6843;DHT22;3460;52.028;8.916;2024-02-04T04:03:30;8.70;99.90
6843;DHT22;3460;52.028;8.916;2024-02-04T04:05:58;8.60;99.90
6843;DHT22;3460;52.028;8.916;2024-02-04T04:08:25;8.60;99.90
6843;DHT22;3460;52.028;8.916;2024-02-04T04:10:51;8.60;99.90
6843;DHT22;3460;52.028;8.916;2024-02-04T04:13:18;8.50;99.90
6843;DHT22;3460;52.028;8.916;2024-02-04T04:15:45;8.60;99.90
6843;DHT22;3460;52.028;8.916;2024-02-04T04:18:12;8.50;99.90
6843;DHT22;3460;52.028;8.916;2024-02-04T04:20:38;8.60;99.90
6843;DHT22;3460;52.028;8.916;2024-02-04T04:23:07;8.60;99.90
6843;DHT22;3460;52.028;8.916;2024-02-04T04:25:33;8.70;99.90
6843;DHT22;3460;52.028;8.916;2024-02-04T04:28:00;8.70;99.90
6843;DHT22;3460;52.028;8.916;2024-02-04T04:30:27;8.70;99.90
6843;DHT22;3460;52.028;8.916;2024-02-04T04:32:54;8.70;99.90
6843;DHT22;3460;52.028;8.916;2024-02-04T04:35:21;8.80;99.90
6843;DHT22;3460;52.028;8.916;2024-02-04T04:37:47;8.90;99.90
6843;DHT22;3460;52.028;8.916;2024-02-04T04:40:15;8.90;99.90
6843;DHT22;3460;52.028;8.916;2024-02-04T04:42:42;8.90;99.90
6843;DHT22;3460;52.028;8.916;2024-02-04T04:45:10;8.90;99.90
6843;DHT22;3460;52.028;8.916;2024-02-04T04:47:37;8.90;99.90
6843;DHT22;3460;52.028;8.916;2024-02-04T04:50:05;8.90;99.90
6843;DHT22;3460;52.028;8.916;2024-02-04T04:52:32;8.80;99.90
6843;DHT22;3460;52.028;8.916;2024-02-04T04:54:59;8.90;99.90
6843;DHT22;3460;52.028;8.916;2024-02-04T04:57:27;8.80;99.90
6843;DHT22;3460;52.028;8.916;2024-02-04T04:59:54;8.80;99.90
6843;DHT22;3460;52.028;8.916;2024-02-04T05:02:20;8.70;99.90
6843;DHT22;3460;52.028;8.916;2024-02-04T05:04:47;8.80;99.90
6843;DHT22;3460;52.028;8.916;2024-02-04T05:07:14;8.70;99.90
6843;DHT22;3460;52.028;8.916;2024-02-04T05:09:41;8.70;99.90
6843;DHT22;3460;52.028;8.916;2024-02-04T05:12:08;8.60;99.90
6843;DHT22;3460;52.028;8.916;2024-02-04T05:14:37;8.60;99.90
6843;DHT22;3460;52.028;8.916;2024-02-04T05:17:04;8.60;99.90
6843;DHT22;3460;52.028;8.916;2024-02-04T05:19:31;8.70;99.90
6843;DHT22;3460;52.028;8.916;2024-02-04T05:21:58;8.60;99.90
6843;DHT22;3460;52.028;8.916;2024-02-04T05:24:24;8.60;99.90
6843;DHT22;3460;52.028;8.916;2024-02-04T05:26:51;8.60;99.90
6843;DHT22;3460;52.028;8.916;2024-02-04T05:29:18;8.60;99.90
6843;DHT22;3460;52.028;8.916;2024-02-04T05:31:46;8.60;99.90
6843;DHT22;3460;52.028;8.916;2024-02-04T05:34:13;8.60;99.90
6843;DHT22;3460;52.028;8.916;2024-02-04T05:36:40;8.60;99.90
6843;DHT22;3460;52.028;8.916;2024-02-04T05:39:11;8.70;99.90
6843;DHT22;3460;52.028;8.916;2024-02-04T05:41:38;8.60;99.90
6843;DHT22;3460;52.028;8.916;2024-02-04T05:44:04;8.60;99.90
6843;DHT22;3460;52.028;8.916;2024-02-04T05:46:31;8.60;99.90
6843;DHT22;3460;52.028;8.916;2024-02-04T05:48:59;8.60;99.90
6843;DHT22;3460;52.028;8.916;2024-02-04T05:51:27;8.60;99.90
6843;DHT22;3460;52.028;8.916;2024-02-04T05:53:54;8.60;99.90
6843;DHT22;3460;52.028;8.916;2024-02-04T05:56:21;8.60;99.90
6843;DHT22;3460;52.028;8.916;2024-02-04T05:58:48;8.60;99.90
6843;DHT22;3460;52.028;8.916;2024-02-04T06:01:16;8.60;99.90
6843;DHT22;3460;52.028;8.916;2024-02-04T06:03:43;8.60;99.90
6843;DHT22;3460;52.028;8.916;2024-02-04T06:06:14;8.70;99.90
6843;DHT22;3460;52.028;8.916;2024-02-04T06:08:41;8.70;99.90
6843;DHT22;3460;52.028;8.916;2024-02-04T06:11:09;8.70;99.90
6843;DHT22;3460;52.028;8.916;2024-02-04T06:13:37;8.70;99.90
6843;DHT22;3460;52.028;8.916;2024-02-04T06:16:05;8.70;99.90
6843;DHT22;3460;52.028;8.916;2024-02-04T06:18:32;8.70;99.90
6843;DHT22;3460;52.028;8.916;2024-02-04T06:20:58;8.60;99.90
6843;DHT22;3460;52.028;8.916;2024-02-04T06:23:26;8.70;99.90
6843;DHT22;3460;52.028;8.916;2024-02-04T06:25:53;8.60;99.90
6843;DHT22;3460;52.028;8.916;2024-02-04T06:28:20;8.60;99.90
6843;DHT22;3460;52.028;8.916;2024-02-04T06:30:46;8.60;99.90
6843;DHT22;3460;52.028;8.916;2024-02-04T06:33:13;8.60;99.90
6843;DHT22;3460;52.028;8.916;2024-02-04T06:35:39;8.60;99.90
6843;DHT22;3460;52.028;8.916;2024-02-04T06:38:06;8.60;99.90
6843;DHT22;3460;52.028;8.916;2024-02-04T06:40:34;8.60;99.90
6843;DHT22;3460;52.028;8.916;2024-02-04T06:43:01;8.60;99.90
6843;DHT22;3460;52.028;8.916;2024-02-04T06:45:28;8.60;99.90
6843;DHT22;3460;52.028;8.916;2024-02-04T06:47:55;8.50;99.90
6843;DHT22;3460;52.028;8.916;2024-02-04T06:50:21;8.50;99.90
6843;DHT22;3460;52.028;8.916;2024-02-04T06:52:48;8.50;99.90
6843;DHT22;3460;52.028;8.916;2024-02-04T06:55:15;8.50;99.90
6843;DHT22;3460;52.028;8.916;2024-02-04T06:57:43;8.40;99.90
6843;DHT22;3460;52.028;8.916;2024-02-04T07:00:11;8.50;99.90
6843;DHT22;3460;52.028;8.916;2024-02-04T07:02:38;8.50;99.90
6843;DHT22;3460;52.028;8.916;2024-02-04T07:05:05;8.40;99.90
6843;DHT22;3460;52.028;8.916;2024-02-04T07:07:32;8.50;99.90
6843;DHT22;3460;52.028;8.916;2024-02-04T07:09:59;8.60;99.90
6843;DHT22;3460;52.028;8.916;2024-02-04T07:12:26;8.60;99.90
6843;DHT22;3460;52.028;8.916;2024-02-04T07:14:54;8.60;99.90
6843;DHT22;3460;52.028;8.916;2024-02-04T07:17:21;8.70;99.90
6843;DHT22;3460;52.028;8.916;2024-02-04T07:19:47;8.70;99.90
6843;DHT22;3460;52.028;8.916;2024-02-04T07:22:14;8.70;99.90
6843;DHT22;3460;52.028;8.916;2024-02-04T07:24:41;8.70;99.90
6843;DHT22;3460;52.028;8.916;2024-02-04T07:27:08;8.70;99.90
6843;DHT22;3460;52.028;8.916;2024-02-04T07:29:35;8.70;99.90
6843;DHT22;3460;52.028;8.916;2024-02-04T07:32:04;8.70;99.90
6843;DHT22;3460;52.028;8.916;2024-02-04T07:34:31;8.70;99.90
6843;DHT22;3460;52.028;8.916;2024-02-04T07:36:58;8.70;99.90
6843;DHT22;3460;52.028;8.916;2024-02-04T07:39:24;8.70;99.90
6843;DHT22;3460;52.028;8.916;2024-02-04T07:41:54;8.70;99.90
6843;DHT22;3460;52.028;8.916;2024-02-04T07:44:22;8.70;99.90
6843;DHT22;3460;52.028;8.916;2024-02-04T07:46:49;8.70;99.90
6843;DHT22;3460;52.028;8.916;2024-02-04T07:49:18;8.70;99.90
6843;DHT22;3460;52.028;8.916;2024-02-04T07:51:44;8.70;99.90
6843;DHT22;3460;52.028;8.916;2024-02-04T07:54:11;8.70;99.90
6843;DHT22;3460;52.028;8.916;2024-02-04T07:56:38;8.70;99.90
6843;DHT22;3460;52.028;8.916;2024-02-04T07:59:05;8.60;99.90
6843;DHT22;3460;52.028;8.916;2024-02-04T08:01:31;8.60;99.90
6843;DHT22;3460;52.028;8.916;2024-02-04T08:03:58;8.50;99.90
6843;DHT22;3460;52.028;8.916;2024-02-04T08:06:26;8.50;99.90
6843;DHT22;3460;52.028;8.916;2024-02-04T08:08:53;8.50;99.90
6843;DHT22;3460;52.028;8.916;2024-02-04T08:11:20;8.50;99.90
6843;DHT22;3460;52.028;8.916;2024-02-04T08:13:48;8.50;99.90
6843;DHT22;3460;52.028;8.916;2024-02-04T08:16:14;8.40;99.90
6843;DHT22;3460;52.028;8.916;2024-02-04T08:18:41;8.40;99.90
6843;DHT22;3460;52.028;8.916;2024-02-04T08:21:08;8.40;99.90
6843;DHT22;3460;52.028;8.916;2024-02-04T08:23:36;8.40;99.90
6843;DHT22;3460;52.028;8.916;2024-02-04T08:26:05;8.40;99.90
6843;DHT22;3460;52.028;8.916;2024-02-04T08:28:31;8.30;99.90
6843;DHT22;3460;52.028;8.916;2024-02-04T08:30:58;8.30;99.90
6843;DHT22;3460;52.028;8.916;2024-02-04T08:33:25;8.30;99.90
6843;DHT22;3460;52.028;8.916;2024-02-04T08:35:52;8.40;99.90
6843;DHT22;3460;52.028;8.916;2024-02-04T08:38:18;8.40;99.90
6843;DHT22;3460;52.028;8.916;2024-02-04T08:40:47;8.40;99.90
6843;DHT22;3460;52.028;8.916;2024-02-04T08:43:13;8.40;99.90
6843;DHT22;3460;52.028;8.916;2024-02-04T08:45:40;8.40;99.90
6843;DHT22;3460;52.028;8.916;2024-02-04T08:48:07;8.40;99.90
6843;DHT22;3460;52.028;8.916;2024-02-04T08:50:34;8.40;99.90
6843;DHT22;3460;52.028;8.916;2024-02-04T08:53:00;8.40;99.90
6843;DHT22;3460;52.028;8.916;2024-02-04T08:55:28;8.40;99.90
6843;DHT22;3460;52.028;8.916;2024-02-04T08:57:56;8.30;99.90
6843;DHT22;3460;52.028;8.916;2024-02-04T09:00:23;8.40;99.90
6843;DHT22;3460;52.028;8.916;2024-02-04T09:02:50;8.30;99.90
6843;DHT22;3460;52.028;8.916;2024-02-04T09:05:17;8.30;99.90
6843;DHT22;3460;52.028;8.916;2024-02-04T09:11:24;8.30;99.90
6843;DHT22;3460;52.028;8.916;2024-02-04T09:13:52;8.40;99.90
6843;DHT22;3460;52.028;8.916;2024-02-04T09:16:19;8.40;99.90
6843;DHT22;3460;52.028;8.916;2024-02-04T09:18:45;8.40;99.90
6843;DHT22;3460;52.028;8.916;2024-02-04T09:21:12;8.40;99.90
6843;DHT22;3460;52.028;8.916;2024-02-04T09:23:39;8.30;99.90
6843;DHT22;3460;52.028;8.916;2024-02-04T09:26:06;8.40;99.90
6843;DHT22;3460;52.028;8.916;2024-02-04T09:28:33;8.40;99.90
6843;DHT22;3460;52.028;8.916;2024-02-04T09:31:01;8.30;99.90
6843;DHT22;3460;52.028;8.916;2024-02-04T09:33:29;8.30;99.90
6843;DHT22;3460;52.028;8.916;2024-02-04T09:35:55;8.40;99.90
6843;DHT22;3460;52.028;8.916;2024-02-04T09:38:22;8.30;99.90
6843;DHT22;3460;52.028;8.916;2024-02-04T09:40:49;8.40;99.90
6843;DHT22;3460;52.028;8.916;2024-02-04T09:43:16;8.40;99.90
6843;DHT22;3460;52.028;8.916;2024-02-04T09:45:44;8.40;99.90
6843;DHT22;3460;52.028;8.916;2024-02-04T09:48:14;8.40;99.90
6843;DHT22;3460;52.028;8.916;2024-02-04T09:50:41;8.40;99.90
6843;DHT22;3460;52.028;8.916;2024-02-04T09:53:09;8.50;99.90
6843;DHT22;3460;52.028;8.916;2024-02-04T09:55:39;8.50;99.90
6843;DHT22;3460;52.028;8.916;2024-02-04T09:58:07;8.40;99.90
6843;DHT22;3460;52.028;8.916;2024-02-04T10:00:34;8.50;99.90
6843;DHT22;3460;52.028;8.916;2024-02-04T10:03:02;8.60;99.90
6843;DHT22;3460;52.028;8.916;2024-02-04T10:05:32;8.70;99.90
6843;DHT22;3460;52.028;8.916;2024-02-04T10:07:58;8.70;99.90
6843;DHT22;3460;52.028;8.916;2024-02-04T10:10:25;8.70;99.90
6843;DHT22;3460;52.028;8.916;2024-02-04T10:12:52;8.70;99.90
6843;DHT22;3460;52.028;8.916;2024-02-04T10:15:19;8.70;99.90
6843;DHT22;3460;52.028;8.916;2024-02-04T10:17:45;8.70;99.90
6843;DHT22;3460;52.028;8.916;2024-02-04T10:20:13;8.60;99.90
6843;DHT22;3460;52.028;8.916;2024-02-04T10:22:41;8.70;99.90
6843;DHT22;3460;52.028;8.916;2024-02-04T10:25:08;8.70;99.90
6843;DHT22;3460;52.028;8.916;2024-02-04T10:27:37;8.70;99.90
6843;DHT22;3460;52.028;8.916;2024-02-04T10:30:05;8.70;99.90
6843;DHT22;3460;52.028;8.916;2024-02-04T10:32:32;8.70;99.90
6843;DHT22;3460;52.028;8.916;2024-02-04T10:35:00;8.70;99.90
6843;DHT22;3460;52.028;8.916;2024-02-04T10:37:27;8.70;99.90
6843;DHT22;3460;52.028;8.916;2024-02-04T10:39:55;8.70;99.90
6843;DHT22;3460;52.028;8.916;2024-02-04T10:42:24;8.60;99.90
6843;DHT22;3460;52.028;8.916;2024-02-04T10:44:53;8.70;99.90
6843;DHT22;3460;52.028;8.916;2024-02-04T10:47:22;8.70;99.90
6843;DHT22;3460;52.028;8.916;2024-02-04T10:49:51;8.70;99.90
6843;DHT22;3460;52.028;8.916;2024-02-04T10:52:19;8.80;99.90
6843;DHT22;3460;52.028;8.916;2024-02-04T10:54:48;8.80;99.90
6843;DHT22;3460;52.028;8.916;2024-02-04T10:57:20;8.80;99.90
6843;DHT22;3460;52.028;8.916;2024-02-04T10:59:48;8.80;99.90
6843;DHT22;3460;52.028;8.916;2024-02-04T11:02:15;8.80;99.90
6843;DHT22;3460;52.028;8.916;2024-02-04T11:04:43;8.80;99.90
6843;DHT22;3460;52.028;8.916;2024-02-04T11:07:10;8.90;99.90
6843;DHT22;3460;52.028;8.916;2024-02-04T11:09:39;9.00;99.90
6843;DHT22;3460;52.028;8.916;2024-02-04T11:12:11;8.90;99.90
6843;DHT22;3460;52.028;8.916;2024-02-04T11:14:41;9.00;99.90
6843;DHT22;3460;52.028;8.916;2024-02-04T11:20:37;9.00;99.90
6843;DHT22;3460;52.028;8.916;2024-02-04T11:23:22;9.00;99.90
6843;DHT22;3460;52.028;8.916;2024-02-04T11:25:54;9.00;99.90
6843;DHT22;3460;52.028;8.916;2024-02-04T11:28:23;9.00;99.90
6843;DHT22;3460;52.028;8.916;2024-02-04T11:30:52;9.10;99.90
6843;DHT22;3460;52.028;8.916;2024-02-04T11:33:21;9.20;99.90
6843;DHT22;3460;52.028;8.916;2024-02-04T11:35:58;9.20;99.90
6843;DHT22;3460;52.028;8.916;2024-02-04T11:38:29;9.10;99.90
6843;DHT22;3460;52.028;8.916;2024-02-04T11:40:57;9.20;99.90
6843;DHT22;3460;52.028;8.916;2024-02-04T11:43:24;9.20;99.90
6843;DHT22;3460;52.028;8.916;2024-02-04T11:45:53;9.20;99.90
6843;DHT22;3460;52.028;8.916;2024-02-04T11:48:28;9.20;99.90
6843;DHT22;3460;52.028;8.916;2024-02-04T11:50:55;9.20;99.90
6843;DHT22;3460;52.028;8.916;2024-02-04T11:53:23;9.20;99.90
6843;DHT22;3460;52.028;8.916;2024-02-04T11:55:54;9.30;99.90
6843;DHT22;3460;52.028;8.916;2024-02-04T11:58:20;9.20;99.90
6843;DHT22;3460;52.028;8.916;2024-02-04T12:00:47;9.20;99.90
6843;DHT22;3460;52.028;8.916;2024-02-04T12:03:16;9.10;99.90
6843;DHT22;3460;52.028;8.916;2024-02-04T12:05:43;9.10;99.90
6843;DHT22;3460;52.028;8.916;2024-02-04T12:08:11;9.10;99.90
6843;DHT22;3460;52.028;8.916;2024-02-04T12:10:38;9.20;99.90
6843;DHT22;3460;52.028;8.916;2024-02-04T12:13:06;9.20;99.90
6843;DHT22;3460;52.028;8.916;2024-02-04T12:15:34;9.10;99.90
6843;DHT22;3460;52.028;8.916;2024-02-04T12:18:08;9.20;99.90
6843;DHT22;3460;52.028;8.916;2024-02-04T12:20:36;9.20;99.90
6843;DHT22;3460;52.028;8.916;2024-02-04T12:23:04;9.10;99.90
6843;DHT22;3460;52.028;8.916;2024-02-04T12:25:31;9.00;99.90
6843;DHT22;3460;52.028;8.916;2024-02-04T12:27:58;9.00;99.90
6843;DHT22;3460;52.028;8.916;2024-02-04T12:30:26;9.00;99.90
6843;DHT22;3460;52.028;8.916;2024-02-04T12:32:56;8.90;99.90
6843;DHT22;3460;52.028;8.916;2024-02-04T12:35:24;9.00;99.90
6843;DHT22;3460;52.028;8.916;2024-02-04T12:37:52;8.90;99.90
6843;DHT22;3460;52.028;8.916;2024-02-04T12:40:23;9.00;99.90
6843;DHT22;3460;52.028;8.916;2024-02-04T12:42:54;9.00;99.90
6843;DHT22;3460;52.028;8.916;2024-02-04T12:45:21;8.90;99.90
6843;DHT22;3460;52.028;8.916;2024-02-04T12:47:50;8.90;99.90
6843;DHT22;3460;52.028;8.916;2024-02-04T12:50:17;9.00;99.90
6843;DHT22;3460;52.028;8.916;2024-02-04T12:52:44;8.90;99.90
6843;DHT22;3460;52.028;8.916;2024-02-04T12:55:22;8.90;99.90
6843;DHT22;3460;52.028;8.916;2024-02-04T12:57:50;9.00;99.90
6843;DHT22;3460;52.028;8.916;2024-02-04T13:00:18;8.90;99.90
6843;DHT22;3460;52.028;8.916;2024-02-04T13:02:48;9.00;99.90
6843;DHT22;3460;52.028;8.916;2024-02-04T13:05:24;9.00;99.90
6843;DHT22;3460;52.028;8.916;2024-02-04T13:07:53;9.00;99.90
6843;DHT22;3460;52.028;8.916;2024-02-04T13:10:23;8.90;99.90
6843;DHT22;3460;52.028;8.916;2024-02-04T13:12:58;8.90;99.90
6843;DHT22;3460;52.028;8.916;2024-02-04T13:15:27;8.90;99.90
6843;DHT22;3460;52.028;8.916;2024-02-04T13:17:53;8.90;99.90
6843;DHT22;3460;52.028;8.916;2024-02-04T13:20:20;9.00;99.90
6843;DHT22;3460;52.028;8.916;2024-02-04T13:22:47;9.00;99.90
6843;DHT22;3460;52.028;8.916;2024-02-04T13:25:14;9.00;99.90
6843;DHT22;3460;52.028;8.916;2024-02-04T13:27:42;9.00;99.90
6843;DHT22;3460;52.028;8.916;2024-02-04T13:30:09;9.00;99.90
6843;DHT22;3460;52.028;8.916;2024-02-04T13:32:38;9.00;99.90
6843;DHT22;3460;52.028;8.916;2024-02-04T13:35:05;9.00;99.90
6843;DHT22;3460;52.028;8.916;2024-02-04T13:37:35;9.10;99.90
6843;DHT22;3460;52.028;8.916;2024-02-04T13:40:03;9.10;99.90
6843;DHT22;3460;52.028;8.916;2024-02-04T13:42:31;9.20;99.90
6843;DHT22;3460;52.028;8.916;2024-02-04T13:45:00;9.20;99.90
6843;DHT22;3460;52.028;8.916;2024-02-04T13:47:28;9.20;99.90
6843;DHT22;3460;52.028;8.916;2024-02-04T13:49:55;9.20;99.90
6843;DHT22;3460;52.028;8.916;2024-02-04T13:52:22;9.20;99.90
6843;DHT22;3460;52.028;8.916;2024-02-04T13:54:49;9.20;99.90
6843;DHT22;3460;52.028;8.916;2024-02-04T13:57:16;9.20;99.90
6843;DHT22;3460;52.028;8.916;2024-02-04T13:59:43;9.10;99.90
6843;DHT22;3460;52.028;8.916;2024-02-04T14:02:11;9.20;99.90
6843;DHT22;3460;52.028;8.916;2024-02-04T14:04:38;9.20;99.90
6843;DHT22;3460;52.028;8.916;2024-02-04T14:07:05;9.20;99.90
6843;DHT22;3460;52.028;8.916;2024-02-04T14:09:32;9.20;99.90
6843;DHT22;3460;52.028;8.916;2024-02-04T14:11:58;9.10;99.90
6843;DHT22;3460;52.028;8.916;2024-02-04T14:14:25;9.10;99.90
6843;DHT22;3460;52.028;8.916;2024-02-04T14:16:52;9.10;99.90
6843;DHT22;3460;52.028;8.916;2024-02-04T14:19:20;9.10;99.90
6843;DHT22;3460;52.028;8.916;2024-02-04T14:21:47;9.10;99.90
6843;DHT22;3460;52.028;8.916;2024-02-04T14:24:14;9.10;99.90
6843;DHT22;3460;52.028;8.916;2024-02-04T14:26:41;9.10;99.90
6843;DHT22;3460;52.028;8.916;2024-02-04T14:29:08;9.10;99.90
6843;DHT22;3460;52.028;8.916;2024-02-04T14:31:35;9.10;99.90
6843;DHT22;3460;52.028;8.916;2024-02-04T14:34:02;9.10;99.90
6843;DHT22;3460;52.028;8.916;2024-02-04T14:36:30;9.00;99.90
6843;DHT22;3460;52.028;8.916;2024-02-04T14:38:57;9.00;99.90
6843;DHT22;3460;52.028;8.916;2024-02-04T14:41:24;9.00;99.90
6843;DHT22;3460;52.028;8.916;2024-02-04T14:43:51;9.00;99.90
6843;DHT22;3460;52.028;8.916;2024-02-04T14:46:18;9.00;99.90
6843;DHT22;3460;52.028;8.916;2024-02-04T14:48:44;8.90;99.90
6843;DHT22;3460;52.028;8.916;2024-02-04T14:51:11;9.00;99.90
6843;DHT22;3460;52.028;8.916;2024-02-04T14:53:39;8.90;99.90
6843;DHT22;3460;52.028;8.916;2024-02-04T14:56:06;8.90;99.90
6843;DHT22;3460;52.028;8.916;2024-02-04T14:58:35;8.80;99.90
6843;DHT22;3460;52.028;8.916;2024-02-04T15:01:01;8.80;99.90
6843;DHT22;3460;52.028;8.916;2024-02-04T15:03:29;8.90;99.90
6843;DHT22;3460;52.028;8.916;2024-02-04T15:05:55;8.80;99.90
6843;DHT22;3460;52.028;8.916;2024-02-04T15:08:22;8.80;99.90
6843;DHT22;3460;52.028;8.916;2024-02-04T15:10:50;8.70;99.90
6843;DHT22;3460;52.028;8.916;2024-02-04T15:13:18;8.70;99.90
6843;DHT22;3460;52.028;8.916;2024-02-04T15:15:45;8.80;99.90
6843;DHT22;3460;52.028;8.916;2024-02-04T15:18:12;8.70;99.90
6843;DHT22;3460;52.028;8.916;2024-02-04T15:20:40;8.80;99.90
6843;DHT22;3460;52.028;8.916;2024-02-04T15:23:08;8.70;99.90
6843;DHT22;3460;52.028;8.916;2024-02-04T15:25:35;8.70;99.90
6843;DHT22;3460;52.028;8.916;2024-02-04T15:28:04;8.70;99.90
6843;DHT22;3460;52.028;8.916;2024-02-04T15:30:32;8.70;99.90
6843;DHT22;3460;52.028;8.916;2024-02-04T15:32:59;8.60;99.90
6843;DHT22;3460;52.028;8.916;2024-02-04T15:35:26;8.60;99.90
6843;DHT22;3460;52.028;8.916;2024-02-04T15:37:53;8.60;99.90
6843;DHT22;3460;52.028;8.916;2024-02-04T15:40:23;8.60;99.90
6843;DHT22;3460;52.028;8.916;2024-02-04T15:42:50;8.60;99.90
6843;DHT22;3460;52.028;8.916;2024-02-04T15:45:18;8.60;99.90
6843;DHT22;3460;52.028;8.916;2024-02-04T15:47:49;8.60;99.90
6843;DHT22;3460;52.028;8.916;2024-02-04T15:50:18;8.70;99.90
6843;DHT22;3460;52.028;8.916;2024-02-04T15:52:45;8.70;99.90
6843;DHT22;3460;52.028;8.916;2024-02-04T15:55:14;8.80;99.90
6843;DHT22;3460;52.028;8.916;2024-02-04T15:57:44;8.70;99.90
6843;DHT22;3460;52.028;8.916;2024-02-04T16:00:13;8.70;99.90
6843;DHT22;3460;52.028;8.916;2024-02-04T16:02:49;8.70;99.90
6843;DHT22;3460;52.028;8.916;2024-02-04T16:05:17;8.70;99.90
6843;DHT22;3460;52.028;8.916;2024-02-04T16:07:44;8.70;99.90
6843;DHT22;3460;52.028;8.916;2024-02-04T16:10:13;8.70;99.90
6843;DHT22;3460;52.028;8.916;2024-02-04T16:12:46;8.70;99.90
6843;DHT22;3460;52.028;8.916;2024-02-04T16:15:19;8.70;99.90
6843;DHT22;3460;52.028;8.916;2024-02-04T16:17:50;8.60;99.90
6843;DHT22;3460;52.028;8.916;2024-02-04T16:20:17;8.60;99.90
6843;DHT22;3460;52.028;8.916;2024-02-04T16:22:45;8.60;99.90
6843;DHT22;3460;52.028;8.916;2024-02-04T16:25:12;8.60;99.90
6843;DHT22;3460;52.028;8.916;2024-02-04T16:27:40;8.50;99.90